sensor_id;sensor_type;location;lat;lon;timestamp;pressure;altitude;pressure_sealevel;temperature;humidity
45991;BME280;31721;41.740;-88.000;2023-10-19T00:02:16;98391.41;;;17.88;40.22
45991;BME280;31721;41.740;-88.000;2023-10-19T00:04:44;98390.94;;;17.77;40.44
45991;BME280;31721;41.740;-88.000;2023-10-19T00:07:12;98384.68;;;17.86;40.81
45991;BME280;31721;41.740;-88.000;2023-10-19T00:09:39;98384.27;;;17.89;40.07
45991;BME280;31721;41.740;-88.000;2023-10-19T00:12:07;98382.06;;;17.68;40.53
45991;BME280;31721;41.740;-88.000;2023-10-19T00:14:36;98382.13;;;17.77;40.29
45991;BME280;31721;41.740;-88.000;2023-10-19T00:17:04;98385.54;;;17.75;40.63
45991;BME280;31721;41.740;-88.000;2023-10-19T00:19:33;98386.76;;;17.79;40.67
45991;BME280;31721;41.740;-88.000;2023-10-19T00:22:01;98387.15;;;17.75;40.50
45991;BME280;31721;41.740;-88.000;2023-10-19T00:24:28;98386.02;;;17.59;40.91
45991;BME280;31721;41.740;-88.000;2023-10-19T00:26:56;98384.47;;;17.67;40.78
45991;BME280;31721;41.740;-88.000;2023-10-19T00:29:24;98378.55;;;17.60;40.92
45991;BME280;31721;41.740;-88.000;2023-10-19T00:31:52;98377.62;;;17.74;40.56
45991;BME280;31721;41.740;-88.000;2023-10-19T00:34:20;98376.94;;;17.93;40.15
45991;BME280;31721;41.740;-88.000;2023-10-19T00:36:49;98375.72;;;17.59;41.02
45991;BME280;31721;41.740;-88.000;2023-10-19T00:39:18;98374.88;;;17.80;40.63
45991;BME280;31721;41.740;-88.000;2023-10-19T00:41:46;98367.46;;;17.57;41.00
45991;BME280;31721;41.740;-88.000;2023-10-19T00:44:15;98371.79;;;17.61;41.07
45991;BME280;31721;41.740;-88.000;2023-10-19T00:46:44;98372.81;;;17.89;40.53
45991;BME280;31721;41.740;-88.000;2023-10-19T00:49:13;98373.42;;;17.65;40.87
45991;BME280;31721;41.740;-88.000;2023-10-19T00:51:43;98378.27;;;17.43;41.34
45991;BME280;31721;41.740;-88.000;2023-10-19T00:54:15;98377.60;;;17.44;41.21
45991;BME280;31721;41.740;-88.000;2023-10-19T00:56:46;98379.94;;;17.43;41.23
45991;BME280;31721;41.740;-88.000;2023-10-19T00:59:15;98381.59;;;17.46;41.00
45991;BME280;31721;41.740;-88.000;2023-10-19T01:01:46;98381.26;;;17.44;41.58
45991;BME280;31721;41.740;-88.000;2023-10-19T01:04:16;98387.08;;;17.34;41.45
45991;BME280;31721;41.740;-88.000;2023-10-19T01:06:45;98391.46;;;17.65;41.21
45991;BME280;31721;41.740;-88.000;2023-10-19T01:09:13;98397.69;;;17.56;42.19
45991;BME280;31721;41.740;-88.000;2023-10-19T01:11:42;98404.60;;;17.58;42.73
45991;BME280;31721;41.740;-88.000;2023-10-19T01:14:19;98404.94;;;17.31;43.34
45991;BME280;31721;41.740;-88.000;2023-10-19T01:16:47;98397.91;;;17.50;43.68
45991;BME280;31721;41.740;-88.000;2023-10-19T01:19:15;98403.04;;;17.22;44.19
45991;BME280;31721;41.740;-88.000;2023-10-19T01:21:43;98406.49;;;17.37;44.76
45991;BME280;31721;41.740;-88.000;2023-10-19T01:24:11;98401.05;;;17.23;45.50
45991;BME280;31721;41.740;-88.000;2023-10-19T01:26:39;98398.36;;;17.18;45.17
45991;BME280;31721;41.740;-88.000;2023-10-19T01:29:07;98395.02;;;17.11;45.46
45991;BME280;31721;41.740;-88.000;2023-10-19T01:31:35;98394.73;;;16.97;45.58
45991;BME280;31721;41.740;-88.000;2023-10-19T01:34:02;98396.20;;;16.89;45.78
45991;BME280;31721;41.740;-88.000;2023-10-19T01:36:30;98399.45;;;16.75;46.33
45991;BME280;31721;41.740;-88.000;2023-10-19T01:38:59;98399.26;;;16.71;46.90
45991;BME280;31721;41.740;-88.000;2023-10-19T01:41:28;98397.65;;;16.74;46.23
45991;BME280;31721;41.740;-88.000;2023-10-19T01:43:56;98396.47;;;16.62;47.06
45991;BME280;31721;41.740;-88.000;2023-10-19T01:46:24;98395.51;;;16.53;47.25
45991;BME280;31721;41.740;-88.000;2023-10-19T01:48:54;98401.28;;;16.69;46.80
45991;BME280;31721;41.740;-88.000;2023-10-19T01:51:23;98400.04;;;16.65;46.83
45991;BME280;31721;41.740;-88.000;2023-10-19T01:53:51;98408.48;;;16.40;47.16
45991;BME280;31721;41.740;-88.000;2023-10-19T01:56:19;98412.24;;;16.39;47.22
45991;BME280;31721;41.740;-88.000;2023-10-19T01:58:49;98413.32;;;16.40;47.41
45991;BME280;31721;41.740;-88.000;2023-10-19T02:01:18;98411.69;;;16.47;47.53
45991;BME280;31721;41.740;-88.000;2023-10-19T02:03:46;98412.16;;;16.45;47.22
45991;BME280;31721;41.740;-88.000;2023-10-19T02:06:15;98414.71;;;16.48;46.60
45991;BME280;31721;41.740;-88.000;2023-10-19T02:08:46;98412.13;;;16.33;46.59
45991;BME280;31721;41.740;-88.000;2023-10-19T02:11:16;98413.55;;;16.35;47.43
45991;BME280;31721;41.740;-88.000;2023-10-19T02:13:47;98413.69;;;16.40;46.98
45991;BME280;31721;41.740;-88.000;2023-10-19T02:16:15;98410.14;;;16.35;47.24
45991;BME280;31721;41.740;-88.000;2023-10-19T02:18:44;98402.58;;;16.33;46.87
45991;BME280;31721;41.740;-88.000;2023-10-19T02:21:12;98403.36;;;16.07;47.20
45991;BME280;31721;41.740;-88.000;2023-10-19T02:23:41;98400.94;;;15.96;47.86
45991;BME280;31721;41.740;-88.000;2023-10-19T02:26:09;98404.84;;;16.11;47.53
45991;BME280;31721;41.740;-88.000;2023-10-19T02:28:37;98410.35;;;16.11;47.78
45991;BME280;31721;41.740;-88.000;2023-10-19T02:31:05;98411.53;;;16.33;46.93
45991;BME280;31721;41.740;-88.000;2023-10-19T02:33:34;98416.80;;;16.06;47.52
45991;BME280;31721;41.740;-88.000;2023-10-19T02:36:01;98413.56;;;16.24;47.12
45991;BME280;31721;41.740;-88.000;2023-10-19T02:38:29;98417.41;;;16.09;47.83
45991;BME280;31721;41.740;-88.000;2023-10-19T02:40:57;98423.56;;;16.09;48.18
45991;BME280;31721;41.740;-88.000;2023-10-19T02:43:25;98426.51;;;16.06;48.00
45991;BME280;31721;41.740;-88.000;2023-10-19T02:45:53;98424.68;;;16.16;48.05
45991;BME280;31721;41.740;-88.000;2023-10-19T02:48:22;98426.07;;;16.09;48.03
45991;BME280;31721;41.740;-88.000;2023-10-19T02:50:49;98430.16;;;16.04;48.50
45991;BME280;31721;41.740;-88.000;2023-10-19T02:53:17;98430.47;;;16.11;48.53
45991;BME280;31721;41.740;-88.000;2023-10-19T02:55:45;98434.41;;;16.08;48.37
45991;BME280;31721;41.740;-88.000;2023-10-19T02:58:13;98437.29;;;16.02;48.75
45991;BME280;31721;41.740;-88.000;2023-10-19T03:00:41;98437.18;;;16.14;49.20
45991;BME280;31721;41.740;-88.000;2023-10-19T03:03:10;98428.92;;;15.98;49.56
45991;BME280;31721;41.740;-88.000;2023-10-19T03:05:38;98432.85;;;16.00;49.67
45991;BME280;31721;41.740;-88.000;2023-10-19T03:08:07;98428.57;;;15.99;50.02
45991;BME280;31721;41.740;-88.000;2023-10-19T03:10:34;98426.54;;;15.80;49.66
45991;BME280;31721;41.740;-88.000;2023-10-19T03:13:03;98423.96;;;15.71;51.11
45991;BME280;31721;41.740;-88.000;2023-10-19T03:15:31;98418.71;;;15.82;51.05
45991;BME280;31721;41.740;-88.000;2023-10-19T03:17:58;98415.69;;;15.71;51.01
45991;BME280;31721;41.740;-88.000;2023-10-19T03:20:26;98412.48;;;15.55;51.69
45991;BME280;31721;41.740;-88.000;2023-10-19T03:22:54;98417.00;;;15.38;51.54
45991;BME280;31721;41.740;-88.000;2023-10-19T03:25:22;98421.73;;;15.47;51.96
45991;BME280;31721;41.740;-88.000;2023-10-19T03:27:51;98422.77;;;15.46;51.69
45991;BME280;31721;41.740;-88.000;2023-10-19T03:30:18;98426.26;;;15.44;52.30
45991;BME280;31721;41.740;-88.000;2023-10-19T03:32:46;98433.72;;;15.38;52.36
45991;BME280;31721;41.740;-88.000;2023-10-19T03:35:14;98434.92;;;15.19;52.50
45991;BME280;31721;41.740;-88.000;2023-10-19T03:37:42;98433.80;;;15.25;52.78
45991;BME280;31721;41.740;-88.000;2023-10-19T03:40:11;98428.55;;;15.15;53.10
45991;BME280;31721;41.740;-88.000;2023-10-19T03:42:39;98426.28;;;15.23;53.29
45991;BME280;31721;41.740;-88.000;2023-10-19T03:45:08;98425.13;;;15.11;53.34
45991;BME280;31721;41.740;-88.000;2023-10-19T03:47:37;98422.92;;;15.15;53.29
45991;BME280;31721;41.740;-88.000;2023-10-19T03:50:05;98424.86;;;14.95;53.63
45991;BME280;31721;41.740;-88.000;2023-10-19T03:52:36;98421.81;;;14.90;53.64
45991;BME280;31721;41.740;-88.000;2023-10-19T03:55:05;98423.81;;;15.04;54.01
45991;BME280;31721;41.740;-88.000;2023-10-19T03:57:34;98421.93;;;14.77;54.41
45991;BME280;31721;41.740;-88.000;2023-10-19T04:00:02;98423.33;;;14.79;54.54
45991;BME280;31721;41.740;-88.000;2023-10-19T04:02:30;98422.97;;;14.82;54.73
45991;BME280;31721;41.740;-88.000;2023-10-19T04:04:58;98415.41;;;14.78;54.55
45991;BME280;31721;41.740;-88.000;2023-10-19T04:07:26;98407.17;;;14.85;55.65
45991;BME280;31721;41.740;-88.000;2023-10-19T04:09:55;98423.08;;;14.77;55.22
45991;BME280;31721;41.740;-88.000;2023-10-19T04:12:24;98424.46;;;14.66;55.61
45991;BME280;31721;41.740;-88.000;2023-10-19T04:14:52;98417.05;;;14.57;56.29
45991;BME280;31721;41.740;-88.000;2023-10-19T04:17:20;98420.13;;;14.46;56.51
45991;BME280;31721;41.740;-88.000;2023-10-19T04:19:47;98417.76;;;14.56;56.63
45991;BME280;31721;41.740;-88.000;2023-10-19T04:22:16;98419.84;;;14.38;56.85
45991;BME280;31721;41.740;-88.000;2023-10-19T04:24:43;98416.97;;;14.39;57.41
45991;BME280;31721;41.740;-88.000;2023-10-19T04:27:11;98415.28;;;14.43;57.12
45991;BME280;31721;41.740;-88.000;2023-10-19T04:29:39;98411.68;;;14.45;57.37
45991;BME280;31721;41.740;-88.000;2023-10-19T04:32:07;98408.05;;;14.23;57.65
45991;BME280;31721;41.740;-88.000;2023-10-19T04:34:35;98404.76;;;14.30;57.49
45991;BME280;31721;41.740;-88.000;2023-10-19T04:37:04;98410.85;;;14.51;58.44
45991;BME280;31721;41.740;-88.000;2023-10-19T04:39:31;98406.03;;;14.24;58.42
45991;BME280;31721;41.740;-88.000;2023-10-19T04:42:00;98408.01;;;14.30;58.32
45991;BME280;31721;41.740;-88.000;2023-10-19T04:44:29;98406.34;;;14.46;58.52
45991;BME280;31721;41.740;-88.000;2023-10-19T04:46:57;98405.77;;;14.39;58.82
45991;BME280;31721;41.740;-88.000;2023-10-19T04:49:25;98403.93;;;14.22;58.95
45991;BME280;31721;41.740;-88.000;2023-10-19T04:51:52;98403.93;;;14.51;58.97
45991;BME280;31721;41.740;-88.000;2023-10-19T04:54:21;98399.39;;;14.36;59.32
45991;BME280;31721;41.740;-88.000;2023-10-19T04:56:49;98401.05;;;14.40;59.49
45991;BME280;31721;41.740;-88.000;2023-10-19T04:59:17;98399.33;;;14.29;59.81
45991;BME280;31721;41.740;-88.000;2023-10-19T05:01:45;98391.81;;;14.22;60.25
45991;BME280;31721;41.740;-88.000;2023-10-19T05:04:13;98386.15;;;14.25;60.11
45991;BME280;31721;41.740;-88.000;2023-10-19T05:06:41;98386.60;;;14.08;60.41
45991;BME280;31721;41.740;-88.000;2023-10-19T05:09:10;98382.55;;;14.16;60.48
45991;BME280;31721;41.740;-88.000;2023-10-19T05:11:37;98383.08;;;14.00;60.38
45991;BME280;31721;41.740;-88.000;2023-10-19T05:14:05;98387.39;;;14.04;60.80
45991;BME280;31721;41.740;-88.000;2023-10-19T05:16:33;98380.46;;;14.15;60.65
45991;BME280;31721;41.740;-88.000;2023-10-19T05:19:02;98381.51;;;13.93;60.95
45991;BME280;31721;41.740;-88.000;2023-10-19T05:21:29;98379.53;;;14.16;61.37
45991;BME280;31721;41.740;-88.000;2023-10-19T05:23:58;98379.22;;;13.92;61.26
45991;BME280;31721;41.740;-88.000;2023-10-19T05:26:27;98371.37;;;13.96;60.97
45991;BME280;31721;41.740;-88.000;2023-10-19T05:28:55;98377.07;;;13.85;61.59
45991;BME280;31721;41.740;-88.000;2023-10-19T05:31:22;98372.48;;;13.94;61.89
45991;BME280;31721;41.740;-88.000;2023-10-19T05:33:51;98371.85;;;13.77;62.27
45991;BME280;31721;41.740;-88.000;2023-10-19T05:36:19;98371.67;;;13.86;61.98
45991;BME280;31721;41.740;-88.000;2023-10-19T05:38:47;98377.00;;;13.52;62.23
45991;BME280;31721;41.740;-88.000;2023-10-19T05:41:14;98377.46;;;13.89;62.34
45991;BME280;31721;41.740;-88.000;2023-10-19T05:43:43;98373.02;;;13.95;62.54
45991;BME280;31721;41.740;-88.000;2023-10-19T05:46:11;98374.17;;;13.85;62.51
45991;BME280;31721;41.740;-88.000;2023-10-19T05:48:39;98368.04;;;13.90;62.78
45991;BME280;31721;41.740;-88.000;2023-10-19T05:51:07;98364.02;;;13.77;62.91
45991;BME280;31721;41.740;-88.000;2023-10-19T05:53:34;98349.95;;;13.67;62.97
45991;BME280;31721;41.740;-88.000;2023-10-19T05:56:02;98343.50;;;13.71;63.03
45991;BME280;31721;41.740;-88.000;2023-10-19T05:58:30;98341.19;;;13.65;63.25
45991;BME280;31721;41.740;-88.000;2023-10-19T06:00:59;98344.30;;;13.78;62.94
45991;BME280;31721;41.740;-88.000;2023-10-19T06:03:27;98343.90;;;13.75;62.78
45991;BME280;31721;41.740;-88.000;2023-10-19T06:05:56;98343.79;;;13.86;62.44
45991;BME280;31721;41.740;-88.000;2023-10-19T06:08:24;98338.17;;;13.74;63.04
45991;BME280;31721;41.740;-88.000;2023-10-19T06:10:52;98331.51;;;13.84;62.69
45991;BME280;31721;41.740;-88.000;2023-10-19T06:13:21;98325.32;;;13.80;63.01
45991;BME280;31721;41.740;-88.000;2023-10-19T06:15:50;98321.51;;;13.63;63.04
45991;BME280;31721;41.740;-88.000;2023-10-19T06:18:17;98321.01;;;13.87;63.35
45991;BME280;31721;41.740;-88.000;2023-10-19T06:20:46;98321.15;;;13.90;63.23
45991;BME280;31721;41.740;-88.000;2023-10-19T06:23:13;98327.10;;;13.81;63.40
45991;BME280;31721;41.740;-88.000;2023-10-19T06:25:42;98316.41;;;13.80;63.48
45991;BME280;31721;41.740;-88.000;2023-10-19T06:28:10;98309.72;;;13.75;63.32
45991;BME280;31721;41.740;-88.000;2023-10-19T06:30:38;98310.25;;;13.66;63.02
45991;BME280;31721;41.740;-88.000;2023-10-19T06:33:06;98309.13;;;13.72;63.54
45991;BME280;31721;41.740;-88.000;2023-10-19T06:35:35;98303.65;;;14.00;63.20
45991;BME280;31721;41.740;-88.000;2023-10-19T06:38:03;98298.01;;;13.82;63.26
45991;BME280;31721;41.740;-88.000;2023-10-19T06:40:33;98290.42;;;13.85;63.38
45991;BME280;31721;41.740;-88.000;2023-10-19T06:43:01;98294.85;;;13.85;63.42
45991;BME280;31721;41.740;-88.000;2023-10-19T06:45:29;98304.19;;;14.04;63.25
45991;BME280;31721;41.740;-88.000;2023-10-19T06:47:58;98299.55;;;13.76;62.56
45991;BME280;31721;41.740;-88.000;2023-10-19T06:50:26;98298.69;;;13.78;63.23
45991;BME280;31721;41.740;-88.000;2023-10-19T06:52:54;98292.60;;;13.69;63.45
45991;BME280;31721;41.740;-88.000;2023-10-19T06:55:21;98289.83;;;13.76;63.28
45991;BME280;31721;41.740;-88.000;2023-10-19T06:57:51;98288.75;;;13.89;63.16
45991;BME280;31721;41.740;-88.000;2023-10-19T07:00:21;98289.97;;;13.72;63.16
45991;BME280;31721;41.740;-88.000;2023-10-19T07:02:50;98291.54;;;13.85;62.80
45991;BME280;31721;41.740;-88.000;2023-10-19T07:05:20;98284.26;;;13.87;63.05
45991;BME280;31721;41.740;-88.000;2023-10-19T07:07:47;98285.32;;;13.83;63.17
45991;BME280;31721;41.740;-88.000;2023-10-19T07:10:15;98279.73;;;13.74;63.12
45991;BME280;31721;41.740;-88.000;2023-10-19T07:12:44;98281.14;;;13.72;63.18
45991;BME280;31721;41.740;-88.000;2023-10-19T07:15:13;98272.65;;;13.65;63.33
45991;BME280;31721;41.740;-88.000;2023-10-19T07:17:41;98271.87;;;13.83;63.51
45991;BME280;31721;41.740;-88.000;2023-10-19T07:20:11;98272.82;;;13.92;63.28
45991;BME280;31721;41.740;-88.000;2023-10-19T07:22:39;98270.59;;;13.82;63.13
45991;BME280;31721;41.740;-88.000;2023-10-19T07:25:07;98269.58;;;13.72;63.06
45991;BME280;31721;41.740;-88.000;2023-10-19T07:27:35;98263.60;;;13.79;63.32
45991;BME280;31721;41.740;-88.000;2023-10-19T07:30:04;98261.17;;;13.73;63.05
45991;BME280;31721;41.740;-88.000;2023-10-19T07:32:32;98252.97;;;13.97;62.82
45991;BME280;31721;41.740;-88.000;2023-10-19T07:35:00;98250.89;;;13.98;62.54
45991;BME280;31721;41.740;-88.000;2023-10-19T07:37:27;98248.33;;;13.91;62.67
45991;BME280;31721;41.740;-88.000;2023-10-19T07:39:56;98245.68;;;13.83;62.51
45991;BME280;31721;41.740;-88.000;2023-10-19T07:42:23;98241.49;;;13.85;62.45
45991;BME280;31721;41.740;-88.000;2023-10-19T07:44:51;98234.46;;;13.89;62.62
45991;BME280;31721;41.740;-88.000;2023-10-19T07:47:18;98232.41;;;13.79;62.67
45991;BME280;31721;41.740;-88.000;2023-10-19T07:49:47;98227.29;;;13.86;62.55
45991;BME280;31721;41.740;-88.000;2023-10-19T07:52:15;98225.46;;;13.94;62.62
45991;BME280;31721;41.740;-88.000;2023-10-19T07:54:43;98216.76;;;13.66;62.49
45991;BME280;31721;41.740;-88.000;2023-10-19T07:57:10;98216.27;;;13.76;62.72
45991;BME280;31721;41.740;-88.000;2023-10-19T07:59:38;98221.81;;;13.80;62.68
45991;BME280;31721;41.740;-88.000;2023-10-19T08:02:06;98215.17;;;13.77;62.61
45991;BME280;31721;41.740;-88.000;2023-10-19T08:04:34;98213.20;;;13.69;62.68
45991;BME280;31721;41.740;-88.000;2023-10-19T08:07:02;98200.95;;;13.68;62.77
45991;BME280;31721;41.740;-88.000;2023-10-19T08:09:30;98198.09;;;13.76;62.45
45991;BME280;31721;41.740;-88.000;2023-10-19T08:11:58;98196.12;;;13.66;62.60
45991;BME280;31721;41.740;-88.000;2023-10-19T08:14:26;98190.91;;;13.69;62.93
45991;BME280;31721;41.740;-88.000;2023-10-19T08:16:54;98188.34;;;13.95;62.10
45991;BME280;31721;41.740;-88.000;2023-10-19T08:19:21;98185.84;;;13.90;62.32
45991;BME280;31721;41.740;-88.000;2023-10-19T08:21:50;98178.49;;;13.81;61.93
45991;BME280;31721;41.740;-88.000;2023-10-19T08:24:17;98175.09;;;13.87;61.94
45991;BME280;31721;41.740;-88.000;2023-10-19T08:26:46;98178.81;;;13.58;62.01
45991;BME280;31721;41.740;-88.000;2023-10-19T08:29:14;98174.54;;;14.00;61.65
45991;BME280;31721;41.740;-88.000;2023-10-19T08:31:42;98172.29;;;13.82;61.84
45991;BME280;31721;41.740;-88.000;2023-10-19T08:34:10;98175.00;;;13.81;62.03
45991;BME280;31721;41.740;-88.000;2023-10-19T08:36:39;98166.69;;;13.80;61.83
45991;BME280;31721;41.740;-88.000;2023-10-19T08:39:08;98159.09;;;13.88;61.55
45991;BME280;31721;41.740;-88.000;2023-10-19T08:41:37;98161.11;;;13.79;61.83
45991;BME280;31721;41.740;-88.000;2023-10-19T08:44:07;98156.14;;;13.68;61.88
45991;BME280;31721;41.740;-88.000;2023-10-19T08:46:35;98149.96;;;13.69;61.88
45991;BME280;31721;41.740;-88.000;2023-10-19T08:49:02;98146.76;;;13.74;61.76
45991;BME280;31721;41.740;-88.000;2023-10-19T08:51:31;98146.25;;;13.59;61.65
45991;BME280;31721;41.740;-88.000;2023-10-19T08:53:59;98142.40;;;13.59;61.70
45991;BME280;31721;41.740;-88.000;2023-10-19T08:56:27;98142.85;;;13.60;61.94
45991;BME280;31721;41.740;-88.000;2023-10-19T08:58:55;98137.66;;;13.38;62.01
45991;BME280;31721;41.740;-88.000;2023-10-19T09:01:23;98133.17;;;13.41;62.20
45991;BME280;31721;41.740;-88.000;2023-10-19T09:03:51;98130.76;;;13.38;62.02
45991;BME280;31721;41.740;-88.000;2023-10-19T09:06:18;98128.88;;;13.35;62.13
45991;BME280;31721;41.740;-88.000;2023-10-19T09:08:47;98132.63;;;13.26;62.30
45991;BME280;31721;41.740;-88.000;2023-10-19T09:11:15;98138.03;;;13.27;62.18
45991;BME280;31721;41.740;-88.000;2023-10-19T09:13:45;98143.89;;;13.29;62.32
45991;BME280;31721;41.740;-88.000;2023-10-19T09:16:15;98144.71;;;13.30;62.33
45991;BME280;31721;41.740;-88.000;2023-10-19T09:18:43;98141.16;;;13.31;62.26
45991;BME280;31721;41.740;-88.000;2023-10-19T09:21:14;98137.69;;;13.25;62.32
45991;BME280;31721;41.740;-88.000;2023-10-19T09:23:42;98133.50;;;13.23;62.37
45991;BME280;31721;41.740;-88.000;2023-10-19T09:26:10;98134.52;;;13.27;62.37
45991;BME280;31721;41.740;-88.000;2023-10-19T09:28:38;98130.37;;;13.27;62.49
45991;BME280;31721;41.740;-88.000;2023-10-19T09:31:06;98132.10;;;13.23;62.18
45991;BME280;31721;41.740;-88.000;2023-10-19T09:33:34;98138.04;;;13.27;62.19
45991;BME280;31721;41.740;-88.000;2023-10-19T09:36:03;98140.77;;;13.36;62.31
45991;BME280;31721;41.740;-88.000;2023-10-19T09:38:31;98141.99;;;13.49;61.95
45991;BME280;31721;41.740;-88.000;2023-10-19T09:40:59;98143.06;;;13.32;61.99
45991;BME280;31721;41.740;-88.000;2023-10-19T09:43:34;98142.97;;;13.25;62.23
45991;BME280;31721;41.740;-88.000;2023-10-19T09:46:07;98141.91;;;13.25;62.02
45991;BME280;31721;41.740;-88.000;2023-10-19T09:48:40;98137.05;;;13.31;62.02
45991;BME280;31721;41.740;-88.000;2023-10-19T09:51:09;98135.60;;;13.20;62.23
45991;BME280;31721;41.740;-88.000;2023-10-19T09:53:39;98131.93;;;13.21;62.23
45991;BME280;31721;41.740;-88.000;2023-10-19T09:56:12;98128.55;;;13.19;62.28
45991;BME280;31721;41.740;-88.000;2023-10-19T09:58:45;98133.28;;;13.19;62.41
45991;BME280;31721;41.740;-88.000;2023-10-19T10:01:13;98136.57;;;13.22;62.17
45991;BME280;31721;41.740;-88.000;2023-10-19T10:03:49;98140.29;;;13.35;62.00
45991;BME280;31721;41.740;-88.000;2023-10-19T10:06:28;98140.20;;;13.37;62.07
45991;BME280;31721;41.740;-88.000;2023-10-19T10:08:57;98141.83;;;13.39;62.13
45991;BME280;31721;41.740;-88.000;2023-10-19T10:11:26;98135.96;;;13.30;61.92
45991;BME280;31721;41.740;-88.000;2023-10-19T10:13:55;98134.78;;;13.36;62.04
45991;BME280;31721;41.740;-88.000;2023-10-19T10:16:24;98127.39;;;13.24;61.97
45991;BME280;31721;41.740;-88.000;2023-10-19T10:18:56;98126.40;;;13.37;62.02
45991;BME280;31721;41.740;-88.000;2023-10-19T10:21:24;98124.72;;;13.19;61.86
45991;BME280;31721;41.740;-88.000;2023-10-19T10:23:54;98126.41;;;13.14;61.82
45991;BME280;31721;41.740;-88.000;2023-10-19T10:26:23;98130.97;;;13.38;61.95
45991;BME280;31721;41.740;-88.000;2023-10-19T10:29:09;98137.25;;;13.27;62.01
45991;BME280;31721;41.740;-88.000;2023-10-19T10:31:42;98137.45;;;13.31;61.87
45991;BME280;31721;41.740;-88.000;2023-10-19T10:34:11;98136.75;;;13.10;61.91
45991;BME280;31721;41.740;-88.000;2023-10-19T10:37:06;98138.13;;;13.08;62.00
45991;BME280;31721;41.740;-88.000;2023-10-19T10:39:35;98140.88;;;13.26;61.90
45991;BME280;31721;41.740;-88.000;2023-10-19T10:42:05;98135.23;;;13.24;62.10
45991;BME280;31721;41.740;-88.000;2023-10-19T10:44:38;98137.28;;;13.20;62.20
45991;BME280;31721;41.740;-88.000;2023-10-19T10:47:07;98137.68;;;13.30;62.17
45991;BME280;31721;41.740;-88.000;2023-10-19T10:49:47;98136.03;;;13.24;62.19
45991;BME280;31721;41.740;-88.000;2023-10-19T10:52:24;98132.59;;;13.24;62.49
45991;BME280;31721;41.740;-88.000;2023-10-19T10:54:53;98133.63;;;13.23;62.50
45991;BME280;31721;41.740;-88.000;2023-10-19T10:57:21;98138.45;;;13.31;62.45
45991;BME280;31721;41.740;-88.000;2023-10-19T11:00:01;98137.97;;;13.28;62.36
45991;BME280;31721;41.740;-88.000;2023-10-19T11:02:29;98127.02;;;13.37;62.50
45991;BME280;31721;41.740;-88.000;2023-10-19T11:04:57;98120.65;;;13.32;62.26
45991;BME280;31721;41.740;-88.000;2023-10-19T11:07:25;98118.35;;;13.26;62.36
45991;BME280;31721;41.740;-88.000;2023-10-19T11:09:53;98110.01;;;13.33;62.46
45991;BME280;31721;41.740;-88.000;2023-10-19T11:12:21;98105.86;;;13.23;62.64
45991;BME280;31721;41.740;-88.000;2023-10-19T11:14:53;98098.07;;;13.34;62.56
45991;BME280;31721;41.740;-88.000;2023-10-19T11:17:21;98099.14;;;13.15;62.64
45991;BME280;31721;41.740;-88.000;2023-10-19T11:19:49;98104.76;;;13.18;62.68
45991;BME280;31721;41.740;-88.000;2023-10-19T11:22:17;98103.70;;;13.21;62.77
45991;BME280;31721;41.740;-88.000;2023-10-19T11:24:45;98105.78;;;13.28;62.73
45991;BME280;31721;41.740;-88.000;2023-10-19T11:27:12;98106.41;;;13.39;62.64
45991;BME280;31721;41.740;-88.000;2023-10-19T11:29:54;98107.30;;;13.24;62.54
45991;BME280;31721;41.740;-88.000;2023-10-19T11:32:22;98105.82;;;13.20;62.58
45991;BME280;31721;41.740;-88.000;2023-10-19T11:34:50;98104.17;;;13.19;62.55
45991;BME280;31721;41.740;-88.000;2023-10-19T11:37:17;98100.76;;;13.39;62.59
45991;BME280;31721;41.740;-88.000;2023-10-19T11:39:45;98100.07;;;13.42;62.30
45991;BME280;31721;41.740;-88.000;2023-10-19T11:42:13;98093.16;;;13.41;62.23
45991;BME280;31721;41.740;-88.000;2023-10-19T11:44:40;98089.62;;;13.20;62.34
45991;BME280;31721;41.740;-88.000;2023-10-19T11:47:08;98084.64;;;13.33;62.35
45991;BME280;31721;41.740;-88.000;2023-10-19T11:49:37;98081.27;;;13.18;62.27
45991;BME280;31721;41.740;-88.000;2023-10-19T11:52:05;98077.76;;;13.16;62.31
45991;BME280;31721;41.740;-88.000;2023-10-19T11:54:33;98072.78;;;13.12;62.40
45991;BME280;31721;41.740;-88.000;2023-10-19T11:57:01;98067.73;;;13.02;62.35
45991;BME280;31721;41.740;-88.000;2023-10-19T11:59:29;98063.95;;;13.05;62.28
45991;BME280;31721;41.740;-88.000;2023-10-19T12:01:57;98061.59;;;13.03;62.31
45991;BME280;31721;41.740;-88.000;2023-10-19T12:04:25;98064.59;;;13.03;62.35
45991;BME280;31721;41.740;-88.000;2023-10-19T12:06:53;98063.68;;;13.01;62.37
45991;BME280;31721;41.740;-88.000;2023-10-19T12:09:21;98058.74;;;12.98;62.28
45991;BME280;31721;41.740;-88.000;2023-10-19T12:11:49;98062.36;;;13.01;62.33
45991;BME280;31721;41.740;-88.000;2023-10-19T12:14:17;98063.04;;;12.91;62.33
45991;BME280;31721;41.740;-88.000;2023-10-19T12:16:46;98063.36;;;13.01;62.41
45991;BME280;31721;41.740;-88.000;2023-10-19T12:19:13;98060.03;;;12.95;62.31
45991;BME280;31721;41.740;-88.000;2023-10-19T12:21:42;98049.90;;;12.91;62.29
45991;BME280;31721;41.740;-88.000;2023-10-19T12:24:10;98039.89;;;12.79;62.47
45991;BME280;31721;41.740;-88.000;2023-10-19T12:26:38;98036.93;;;12.85;62.48
45991;BME280;31721;41.740;-88.000;2023-10-19T12:29:07;98034.72;;;12.77;62.52
45991;BME280;31721;41.740;-88.000;2023-10-19T12:31:35;98034.96;;;12.81;62.56
45991;BME280;31721;41.740;-88.000;2023-10-19T12:34:05;98040.62;;;12.65;62.65
45991;BME280;31721;41.740;-88.000;2023-10-19T12:36:34;98044.19;;;12.64;62.72
45991;BME280;31721;41.740;-88.000;2023-10-19T12:39:02;98048.41;;;12.72;62.83
45991;BME280;31721;41.740;-88.000;2023-10-19T12:41:30;98054.05;;;12.79;62.81
45991;BME280;31721;41.740;-88.000;2023-10-19T12:43:59;98053.19;;;12.65;62.85
45991;BME280;31721;41.740;-88.000;2023-10-19T12:46:27;98047.41;;;12.65;62.99
45991;BME280;31721;41.740;-88.000;2023-10-19T12:48:55;98043.20;;;12.78;63.16